sensor_id;sensor_type;location;lat;lon;timestamp;temperature;humidity
69932;DHT22;57243;52.064;5.116;2023-06-22T00:01:01;24.40;56.50
69932;DHT22;57243;52.064;5.116;2023-06-22T00:03:27;24.40;56.40
69932;DHT22;57243;52.064;5.116;2023-06-22T00:05:52;24.40;56.50
69932;DHT22;57243;52.064;5.116;2023-06-22T00:08:18;24.40;56.60
69932;DHT22;57243;52.064;5.116;2023-06-22T00:10:44;24.40;56.70
69932;DHT22;57243;52.064;5.116;2023-06-22T00:13:10;24.40;56.60
69932;DHT22;57243;52.064;5.116;2023-06-22T00:15:37;24.40;56.70
69932;DHT22;57243;52.064;5.116;2023-06-22T00:18:03;24.40;56.70
69932;DHT22;57243;52.064;5.116;2023-06-22T00:20:28;24.40;56.70
69932;DHT22;57243;52.064;5.116;2023-06-22T00:22:54;24.40;56.70
69932;DHT22;57243;52.064;5.116;2023-06-22T00:25:20;24.40;56.70
69932;DHT22;57243;52.064;5.116;2023-06-22T00:27:45;24.40;56.80
69932;DHT22;57243;52.064;5.116;2023-06-22T00:30:11;24.30;56.90
69932;DHT22;57243;52.064;5.116;2023-06-22T00:32:36;24.40;56.90
69932;DHT22;57243;52.064;5.116;2023-06-22T00:35:02;24.30;56.90
69932;DHT22;57243;52.064;5.116;2023-06-22T00:37:28;24.30;57.00
69932;DHT22;57243;52.064;5.116;2023-06-22T00:39:55;24.30;56.90
69932;DHT22;57243;52.064;5.116;2023-06-22T00:42:20;24.30;56.90
69932;DHT22;57243;52.064;5.116;2023-06-22T00:44:46;24.30;56.90
69932;DHT22;57243;52.064;5.116;2023-06-22T00:47:12;24.30;57.10
69932;DHT22;57243;52.064;5.116;2023-06-22T00:49:39;24.30;57.10
69932;DHT22;57243;52.064;5.116;2023-06-22T00:52:05;24.30;57.20
69932;DHT22;57243;52.064;5.116;2023-06-22T00:54:37;24.30;57.20
69932;DHT22;57243;52.064;5.116;2023-06-22T00:57:02;24.30;57.40
69932;DHT22;57243;52.064;5.116;2023-06-22T00:59:28;24.30;57.20
69932;DHT22;57243;52.064;5.116;2023-06-22T01:01:54;24.30;57.30
69932;DHT22;57243;52.064;5.116;2023-06-22T01:04:19;24.30;57.20
69932;DHT22;57243;52.064;5.116;2023-06-22T01:06:45;24.20;57.40
69932;DHT22;57243;52.064;5.116;2023-06-22T01:09:15;24.30;57.30
69932;DHT22;57243;52.064;5.116;2023-06-22T01:11:48;24.30;57.30
69932;DHT22;57243;52.064;5.116;2023-06-22T01:14:18;24.30;57.30
69932;DHT22;57243;52.064;5.116;2023-06-22T01:16:46;24.30;57.30
69932;DHT22;57243;52.064;5.116;2023-06-22T01:21:50;24.20;57.40
69932;DHT22;57243;52.064;5.116;2023-06-22T01:24:22;24.20;57.40
69932;DHT22;57243;52.064;5.116;2023-06-22T01:27:09;24.20;57.50
69932;DHT22;57243;52.064;5.116;2023-06-22T01:29:38;24.20;57.50
69932;DHT22;57243;52.064;5.116;2023-06-22T01:32:05;24.20;57.60
69932;DHT22;57243;52.064;5.116;2023-06-22T01:34:31;24.20;57.50
69932;DHT22;57243;52.064;5.116;2023-06-22T01:36:57;24.30;57.50
69932;DHT22;57243;52.064;5.116;2023-06-22T01:39:23;24.30;57.50
69932;DHT22;57243;52.064;5.116;2023-06-22T01:41:49;24.30;57.50
69932;DHT22;57243;52.064;5.116;2023-06-22T01:44:15;24.20;57.50
69932;DHT22;57243;52.064;5.116;2023-06-22T01:46:41;24.20;57.50
69932;DHT22;57243;52.064;5.116;2023-06-22T01:49:07;24.20;57.60
69932;DHT22;57243;52.064;5.116;2023-06-22T01:51:33;24.20;57.60
69932;DHT22;57243;52.064;5.116;2023-06-22T01:53:58;24.20;57.50
69932;DHT22;57243;52.064;5.116;2023-06-22T01:56:24;24.20;57.60
69932;DHT22;57243;52.064;5.116;2023-06-22T01:58:55;24.20;57.40
69932;DHT22;57243;52.064;5.116;2023-06-22T02:01:27;24.20;57.60
69932;DHT22;57243;52.064;5.116;2023-06-22T02:04:06;24.20;57.60
69932;DHT22;57243;52.064;5.116;2023-06-22T02:06:33;24.20;57.70
69932;DHT22;57243;52.064;5.116;2023-06-22T02:09:01;24.20;57.60
69932;DHT22;57243;52.064;5.116;2023-06-22T02:11:27;24.10;57.60
69932;DHT22;57243;52.064;5.116;2023-06-22T02:13:55;24.10;57.70
69932;DHT22;57243;52.064;5.116;2023-06-22T02:16:21;24.00;57.80
69932;DHT22;57243;52.064;5.116;2023-06-22T02:18:47;24.10;57.80
69932;DHT22;57243;52.064;5.116;2023-06-22T02:21:13;24.10;57.80
69932;DHT22;57243;52.064;5.116;2023-06-22T02:23:38;24.00;57.80
69932;DHT22;57243;52.064;5.116;2023-06-22T02:26:03;24.10;57.70
69932;DHT22;57243;52.064;5.116;2023-06-22T02:28:29;24.00;57.80
69932;DHT22;57243;52.064;5.116;2023-06-22T02:30:55;24.00;57.90
69932;DHT22;57243;52.064;5.116;2023-06-22T02:33:20;24.10;57.80
69932;DHT22;57243;52.064;5.116;2023-06-22T02:35:46;24.10;57.80
69932;DHT22;57243;52.064;5.116;2023-06-22T02:38:14;24.10;57.90
69932;DHT22;57243;52.064;5.116;2023-06-22T02:40:39;24.10;57.70
69932;DHT22;57243;52.064;5.116;2023-06-22T02:43:05;24.10;57.80
69932;DHT22;57243;52.064;5.116;2023-06-22T02:45:30;24.10;57.90
69932;DHT22;57243;52.064;5.116;2023-06-22T02:47:56;24.10;57.90
69932;DHT22;57243;52.064;5.116;2023-06-22T02:50:22;24.10;57.80
69932;DHT22;57243;52.064;5.116;2023-06-22T02:52:47;24.10;57.80
69932;DHT22;57243;52.064;5.116;2023-06-22T02:55:13;24.10;57.80
69932;DHT22;57243;52.064;5.116;2023-06-22T02:57:38;24.10;57.90
69932;DHT22;57243;52.064;5.116;2023-06-22T03:00:09;24.10;57.90
69932;DHT22;57243;52.064;5.116;2023-06-22T03:02:42;24.10;57.70
69932;DHT22;57243;52.064;5.116;2023-06-22T03:05:08;24.10;57.80
69932;DHT22;57243;52.064;5.116;2023-06-22T03:07:41;24.10;57.70
69932;DHT22;57243;52.064;5.116;2023-06-22T03:10:10;24.10;57.60
69932;DHT22;57243;52.064;5.116;2023-06-22T03:12:37;24.10;57.70
69932;DHT22;57243;52.064;5.116;2023-06-22T03:15:04;24.10;57.80
69932;DHT22;57243;52.064;5.116;2023-06-22T03:17:29;24.10;57.80
69932;DHT22;57243;52.064;5.116;2023-06-22T03:19:55;24.10;57.80
69932;DHT22;57243;52.064;5.116;2023-06-22T03:22:20;24.10;57.90
69932;DHT22;57243;52.064;5.116;2023-06-22T03:24:46;24.10;57.70
69932;DHT22;57243;52.064;5.116;2023-06-22T03:27:11;24.10;57.60
69932;DHT22;57243;52.064;5.116;2023-06-22T03:29:37;24.10;57.60
69932;DHT22;57243;52.064;5.116;2023-06-22T03:32:02;24.10;57.60
69932;DHT22;57243;52.064;5.116;2023-06-22T03:34:30;24.10;57.60
69932;DHT22;57243;52.064;5.116;2023-06-22T03:36:58;24.00;57.60
69932;DHT22;57243;52.064;5.116;2023-06-22T03:39:24;24.00;57.60
69932;DHT22;57243;52.064;5.116;2023-06-22T03:41:49;24.00;57.60
69932;DHT22;57243;52.064;5.116;2023-06-22T03:44:15;24.00;57.50
69932;DHT22;57243;52.064;5.116;2023-06-22T03:46:40;24.00;57.60
69932;DHT22;57243;52.064;5.116;2023-06-22T03:49:06;24.00;57.60
69932;DHT22;57243;52.064;5.116;2023-06-22T03:51:32;24.00;57.60
69932;DHT22;57243;52.064;5.116;2023-06-22T03:53:58;24.00;57.40
69932;DHT22;57243;52.064;5.116;2023-06-22T03:56:23;24.00;57.50
69932;DHT22;57243;52.064;5.116;2023-06-22T03:58:49;24.00;57.50
69932;DHT22;57243;52.064;5.116;2023-06-22T04:01:14;24.00;57.40
69932;DHT22;57243;52.064;5.116;2023-06-22T04:03:42;23.90;57.60
69932;DHT22;57243;52.064;5.116;2023-06-22T04:06:08;23.90;57.60
69932;DHT22;57243;52.064;5.116;2023-06-22T04:08:33;23.90;57.50
69932;DHT22;57243;52.064;5.116;2023-06-22T04:10:59;23.80;57.50
69932;DHT22;57243;52.064;5.116;2023-06-22T04:13:24;23.80;57.60
69932;DHT22;57243;52.064;5.116;2023-06-22T04:15:50;23.80;57.80
69932;DHT22;57243;52.064;5.116;2023-06-22T04:18:16;23.80;57.80
69932;DHT22;57243;52.064;5.116;2023-06-22T04:20:41;23.80;57.90
69932;DHT22;57243;52.064;5.116;2023-06-22T04:23:07;23.80;57.90
69932;DHT22;57243;52.064;5.116;2023-06-22T04:25:32;23.80;57.80
69932;DHT22;57243;52.064;5.116;2023-06-22T04:27:58;23.80;57.60
69932;DHT22;57243;52.064;5.116;2023-06-22T04:30:23;23.80;57.80
69932;DHT22;57243;52.064;5.116;2023-06-22T04:32:49;23.80;57.90
69932;DHT22;57243;52.064;5.116;2023-06-22T04:35:21;23.80;57.70
69932;DHT22;57243;52.064;5.116;2023-06-22T04:37:47;23.80;57.90
69932;DHT22;57243;52.064;5.116;2023-06-22T04:40:14;23.50;58.30
69932;DHT22;57243;52.064;5.116;2023-06-22T04:42:40;23.20;59.00
69932;DHT22;57243;52.064;5.116;2023-06-22T04:45:06;23.00;59.30
69932;DHT22;57243;52.064;5.116;2023-06-22T04:47:31;22.90;59.70
69932;DHT22;57243;52.064;5.116;2023-06-22T04:49:57;22.90;59.80
69932;DHT22;57243;52.064;5.116;2023-06-22T04:52:22;22.90;59.70
69932;DHT22;57243;52.064;5.116;2023-06-22T04:54:49;22.90;59.90
69932;DHT22;57243;52.064;5.116;2023-06-22T04:57:20;22.90;59.50
69932;DHT22;57243;52.064;5.116;2023-06-22T04:59:46;22.90;60.00
69932;DHT22;57243;52.064;5.116;2023-06-22T05:02:11;22.90;59.70
69932;DHT22;57243;52.064;5.116;2023-06-22T05:04:37;22.90;59.90
69932;DHT22;57243;52.064;5.116;2023-06-22T05:07:04;23.00;59.70
69932;DHT22;57243;52.064;5.116;2023-06-22T05:09:29;23.00;59.60
69932;DHT22;57243;52.064;5.116;2023-06-22T05:11:55;23.00;59.60
69932;DHT22;57243;52.064;5.116;2023-06-22T05:14:22;23.00;59.70
69932;DHT22;57243;52.064;5.116;2023-06-22T05:16:48;22.90;59.80
69932;DHT22;57243;52.064;5.116;2023-06-22T05:19:13;22.80;59.70
69932;DHT22;57243;52.064;5.116;2023-06-22T05:21:39;22.90;60.00
69932;DHT22;57243;52.064;5.116;2023-06-22T05:24:04;23.00;59.60
69932;DHT22;57243;52.064;5.116;2023-06-22T05:26:31;22.70;59.80
69932;DHT22;57243;52.064;5.116;2023-06-22T05:28:56;22.70;60.20
69932;DHT22;57243;52.064;5.116;2023-06-22T05:31:23;22.70;59.80
69932;DHT22;57243;52.064;5.116;2023-06-22T05:33:50;22.60;60.20
69932;DHT22;57243;52.064;5.116;2023-06-22T05:36:17;22.60;60.20
69932;DHT22;57243;52.064;5.116;2023-06-22T05:38:45;22.60;60.50
69932;DHT22;57243;52.064;5.116;2023-06-22T05:41:10;22.60;60.30
69932;DHT22;57243;52.064;5.116;2023-06-22T05:43:36;22.70;60.30
69932;DHT22;57243;52.064;5.116;2023-06-22T05:46:01;23.00;60.20
69932;DHT22;57243;52.064;5.116;2023-06-22T05:48:27;23.20;60.10
69932;DHT22;57243;52.064;5.116;2023-06-22T05:50:53;23.30;59.20
69932;DHT22;57243;52.064;5.116;2023-06-22T05:53:19;23.10;59.80
69932;DHT22;57243;52.064;5.116;2023-06-22T05:55:46;23.10;60.10
69932;DHT22;57243;52.064;5.116;2023-06-22T05:58:11;23.10;60.00
69932;DHT22;57243;52.064;5.116;2023-06-22T06:00:38;23.10;60.00
69932;DHT22;57243;52.064;5.116;2023-06-22T06:03:05;22.90;59.90
69932;DHT22;57243;52.064;5.116;2023-06-22T06:05:31;22.90;60.50
69932;DHT22;57243;52.064;5.116;2023-06-22T06:07:57;23.00;60.40
69932;DHT22;57243;52.064;5.116;2023-06-22T06:10:23;22.90;60.60
69932;DHT22;57243;52.064;5.116;2023-06-22T06:12:48;23.00;60.80
69932;DHT22;57243;52.064;5.116;2023-06-22T06:15:14;23.00;60.80
69932;DHT22;57243;52.064;5.116;2023-06-22T06:17:49;22.80;61.30
69932;DHT22;57243;52.064;5.116;2023-06-22T06:20:15;22.80;61.70
69932;DHT22;57243;52.064;5.116;2023-06-22T06:22:40;22.90;61.90
69932;DHT22;57243;52.064;5.116;2023-06-22T06:25:08;23.00;61.70
69932;DHT22;57243;52.064;5.116;2023-06-22T06:27:35;23.20;61.60
69932;DHT22;57243;52.064;5.116;2023-06-22T06:30:00;23.20;61.70
69932;DHT22;57243;52.064;5.116;2023-06-22T06:32:25;23.20;61.50
69932;DHT22;57243;52.064;5.116;2023-06-22T06:34:51;23.10;61.70
69932;DHT22;57243;52.064;5.116;2023-06-22T06:37:17;23.20;61.70
69932;DHT22;57243;52.064;5.116;2023-06-22T06:39:44;23.30;61.70
69932;DHT22;57243;52.064;5.116;2023-06-22T06:42:09;23.50;61.50
69932;DHT22;57243;52.064;5.116;2023-06-22T06:44:36;23.50;61.30
69932;DHT22;57243;52.064;5.116;2023-06-22T06:47:03;23.50;61.10
69932;DHT22;57243;52.064;5.116;2023-06-22T06:49:29;23.50;61.10
69932;DHT22;57243;52.064;5.116;2023-06-22T06:51:54;23.50;61.30
69932;DHT22;57243;52.064;5.116;2023-06-22T06:54:21;23.60;61.00
69932;DHT22;57243;52.064;5.116;2023-06-22T06:56:47;23.50;61.00
69932;DHT22;57243;52.064;5.116;2023-06-22T06:59:14;23.50;61.10
69932;DHT22;57243;52.064;5.116;2023-06-22T07:01:40;23.50;61.30
69932;DHT22;57243;52.064;5.116;2023-06-22T07:04:06;23.50;61.30
69932;DHT22;57243;52.064;5.116;2023-06-22T07:06:31;23.50;61.40
69932;DHT22;57243;52.064;5.116;2023-06-22T07:08:59;23.60;61.30
69932;DHT22;57243;52.064;5.116;2023-06-22T07:11:25;23.70;61.00
69932;DHT22;57243;52.064;5.116;2023-06-22T07:13:50;23.60;60.70
69932;DHT22;57243;52.064;5.116;2023-06-22T07:16:16;23.60;60.70
69932;DHT22;57243;52.064;5.116;2023-06-22T07:18:41;23.60;60.80
69932;DHT22;57243;52.064;5.116;2023-06-22T07:21:07;23.70;60.80
69932;DHT22;57243;52.064;5.116;2023-06-22T07:23:33;23.70;60.70
69932;DHT22;57243;52.064;5.116;2023-06-22T07:25:58;23.70;60.70
69932;DHT22;57243;52.064;5.116;2023-06-22T07:28:27;23.80;60.60
69932;DHT22;57243;52.064;5.116;2023-06-22T07:30:52;23.80;60.60
69932;DHT22;57243;52.064;5.116;2023-06-22T07:33:18;23.90;60.40
69932;DHT22;57243;52.064;5.116;2023-06-22T07:35:44;23.90;60.30
69932;DHT22;57243;52.064;5.116;2023-06-22T07:38:10;23.80;60.40
69932;DHT22;57243;52.064;5.116;2023-06-22T07:40:35;23.80;60.70
69932;DHT22;57243;52.064;5.116;2023-06-22T07:43:01;23.80;60.60
69932;DHT22;57243;52.064;5.116;2023-06-22T07:45:27;23.80;60.20
69932;DHT22;57243;52.064;5.116;2023-06-22T07:47:52;23.80;60.60
69932;DHT22;57243;52.064;5.116;2023-06-22T07:50:18;23.80;60.70
69932;DHT22;57243;52.064;5.116;2023-06-22T07:52:46;23.80;60.70
69932;DHT22;57243;52.064;5.116;2023-06-22T07:55:13;23.90;60.70
69932;DHT22;57243;52.064;5.116;2023-06-22T07:57:39;24.00;60.70
69932;DHT22;57243;52.064;5.116;2023-06-22T08:00:07;24.00;60.50
69932;DHT22;57243;52.064;5.116;2023-06-22T08:02:40;24.00;60.50
69932;DHT22;57243;52.064;5.116;2023-06-22T08:05:06;24.00;60.50
69932;DHT22;57243;52.064;5.116;2023-06-22T08:07:34;24.00;60.40
69932;DHT22;57243;52.064;5.116;2023-06-22T08:10:00;24.00;60.50
69932;DHT22;57243;52.064;5.116;2023-06-22T08:12:26;24.00;60.40
69932;DHT22;57243;52.064;5.116;2023-06-22T08:14:52;24.00;60.10
69932;DHT22;57243;52.064;5.116;2023-06-22T08:17:18;24.00;59.20
69932;DHT22;57243;52.064;5.116;2023-06-22T08:19:43;24.00;58.50
69932;DHT22;57243;52.064;5.116;2023-06-22T08:22:09;24.00;58.70
69932;DHT22;57243;52.064;5.116;2023-06-22T08:24:34;24.00;58.50
69932;DHT22;57243;52.064;5.116;2023-06-22T08:27:00;24.00;58.70
69932;DHT22;57243;52.064;5.116;2023-06-22T08:29:26;24.00;57.80
69932;DHT22;57243;52.064;5.116;2023-06-22T08:31:51;24.00;57.50
69932;DHT22;57243;52.064;5.116;2023-06-22T08:34:16;24.00;56.80
69932;DHT22;57243;52.064;5.116;2023-06-22T08:36:47;24.00;57.30
69932;DHT22;57243;52.064;5.116;2023-06-22T08:39:17;24.00;56.50
69932;DHT22;57243;52.064;5.116;2023-06-22T08:41:42;24.00;56.50
69932;DHT22;57243;52.064;5.116;2023-06-22T08:44:07;24.00;57.10
69932;DHT22;57243;52.064;5.116;2023-06-22T08:46:33;24.10;56.60
69932;DHT22;57243;52.064;5.116;2023-06-22T08:48:59;24.10;56.70
69932;DHT22;57243;52.064;5.116;2023-06-22T08:51:24;24.10;56.50
69932;DHT22;57243;52.064;5.116;2023-06-22T08:53:50;24.10;56.60
69932;DHT22;57243;52.064;5.116;2023-06-22T08:56:16;24.10;56.60
69932;DHT22;57243;52.064;5.116;2023-06-22T08:58:41;24.10;56.90
69932;DHT22;57243;52.064;5.116;2023-06-22T09:01:07;24.10;56.90
69932;DHT22;57243;52.064;5.116;2023-06-22T09:03:32;24.20;56.20
69932;DHT22;57243;52.064;5.116;2023-06-22T09:06:00;24.10;55.20
69932;DHT22;57243;52.064;5.116;2023-06-22T09:08:25;24.10;54.90
69932;DHT22;57243;52.064;5.116;2023-06-22T09:10:51;24.10;54.60
69932;DHT22;57243;52.064;5.116;2023-06-22T09:13:16;24.10;55.60
69932;DHT22;57243;52.064;5.116;2023-06-22T09:15:42;24.10;55.80
69932;DHT22;57243;52.064;5.116;2023-06-22T09:18:10;24.10;56.00
69932;DHT22;57243;52.064;5.116;2023-06-22T09:20:35;24.10;55.80
69932;DHT22;57243;52.064;5.116;2023-06-22T09:23:01;24.10;55.30
69932;DHT22;57243;52.064;5.116;2023-06-22T09:25:26;24.20;55.00
69932;DHT22;57243;52.064;5.116;2023-06-22T09:27:52;24.20;54.90
69932;DHT22;57243;52.064;5.116;2023-06-22T09:30:17;24.10;55.10
69932;DHT22;57243;52.064;5.116;2023-06-22T09:32:43;24.20;55.30
69932;DHT22;57243;52.064;5.116;2023-06-22T09:35:09;24.20;55.40
69932;DHT22;57243;52.064;5.116;2023-06-22T09:37:35;24.20;55.60
69932;DHT22;57243;52.064;5.116;2023-06-22T09:40:01;24.20;55.30
69932;DHT22;57243;52.064;5.116;2023-06-22T09:42:26;24.20;55.40
69932;DHT22;57243;52.064;5.116;2023-06-22T09:44:52;24.20;55.00
69932;DHT22;57243;52.064;5.116;2023-06-22T09:47:17;24.20;55.30
69932;DHT22;57243;52.064;5.116;2023-06-22T09:49:43;24.20;55.10
69932;DHT22;57243;52.064;5.116;2023-06-22T09:52:08;24.20;55.10
69932;DHT22;57243;52.064;5.116;2023-06-22T09:54:34;24.20;55.10
69932;DHT22;57243;52.064;5.116;2023-06-22T09:56:59;24.20;55.10
69932;DHT22;57243;52.064;5.116;2023-06-22T09:59:25;24.20;55.20
69932;DHT22;57243;52.064;5.116;2023-06-22T10:01:50;24.20;55.10
69932;DHT22;57243;52.064;5.116;2023-06-22T10:04:16;24.20;55.00
69932;DHT22;57243;52.064;5.116;2023-06-22T10:06:41;24.20;54.60
69932;DHT22;57243;52.064;5.116;2023-06-22T10:09:07;24.20;54.60
69932;DHT22;57243;52.064;5.116;2023-06-22T10:11:33;24.20;54.30
69932;DHT22;57243;52.064;5.116;2023-06-22T10:14:00;24.20;54.30
69932;DHT22;57243;52.064;5.116;2023-06-22T10:16:32;24.20;54.30
69932;DHT22;57243;52.064;5.116;2023-06-22T10:18:58;24.20;54.30
69932;DHT22;57243;52.064;5.116;2023-06-22T10:21:23;24.30;54.80
69932;DHT22;57243;52.064;5.116;2023-06-22T10:23:49;24.40;55.20
69932;DHT22;57243;52.064;5.116;2023-06-22T10:26:14;24.50;55.40
69932;DHT22;57243;52.064;5.116;2023-06-22T10:28:39;24.50;54.60
69932;DHT22;57243;52.064;5.116;2023-06-22T10:31:05;24.40;55.60
69932;DHT22;57243;52.064;5.116;2023-06-22T10:33:30;24.40;55.20
69932;DHT22;57243;52.064;5.116;2023-06-22T10:35:56;24.40;55.10
69932;DHT22;57243;52.064;5.116;2023-06-22T10:38:21;24.40;55.40
69932;DHT22;57243;52.064;5.116;2023-06-22T10:40:47;24.30;55.80
69932;DHT22;57243;52.064;5.116;2023-06-22T10:43:12;24.30;55.60
69932;DHT22;57243;52.064;5.116;2023-06-22T10:45:38;24.30;55.60
69932;DHT22;57243;52.064;5.116;2023-06-22T10:48:03;24.30;55.80
69932;DHT22;57243;52.064;5.116;2023-06-22T10:50:29;24.30;55.90
69932;DHT22;57243;52.064;5.116;2023-06-22T10:52:55;24.30;56.00
69932;DHT22;57243;52.064;5.116;2023-06-22T10:55:20;24.30;56.00
69932;DHT22;57243;52.064;5.116;2023-06-22T10:57:46;24.30;56.20
69932;DHT22;57243;52.064;5.116;2023-06-22T11:00:12;24.30;56.10
69932;DHT22;57243;52.064;5.116;2023-06-22T11:02:38;24.30;56.20
69932;DHT22;57243;52.064;5.116;2023-06-22T11:05:04;24.30;56.40
69932;DHT22;57243;52.064;5.116;2023-06-22T11:07:30;24.30;56.40
69932;DHT22;57243;52.064;5.116;2023-06-22T11:09:55;24.30;56.40
69932;DHT22;57243;52.064;5.116;2023-06-22T11:12:21;24.30;56.50
69932;DHT22;57243;52.064;5.116;2023-06-22T11:14:46;24.30;56.60
69932;DHT22;57243;52.064;5.116;2023-06-22T11:17:12;24.30;56.50
69932;DHT22;57243;52.064;5.116;2023-06-22T11:19:37;24.30;56.60
69932;DHT22;57243;52.064;5.116;2023-06-22T11:22:03;24.30;56.60
69932;DHT22;57243;52.064;5.116;2023-06-22T11:24:28;24.30;56.60
69932;DHT22;57243;52.064;5.116;2023-06-22T11:26:54;24.30;56.70
69932;DHT22;57243;52.064;5.116;2023-06-22T11:29:19;24.30;56.80
69932;DHT22;57243;52.064;5.116;2023-06-22T11:31:45;24.30;56.80
69932;DHT22;57243;52.064;5.116;2023-06-22T11:34:10;24.30;56.90
69932;DHT22;57243;52.064;5.116;2023-06-22T11:36:36;24.30;56.90
69932;DHT22;57243;52.064;5.116;2023-06-22T11:39:01;24.40;56.90
69932;DHT22;57243;52.064;5.116;2023-06-22T11:41:27;24.30;57.00
69932;DHT22;57243;52.064;5.116;2023-06-22T11:43:53;24.40;56.80
69932;DHT22;57243;52.064;5.116;2023-06-22T11:46:18;24.40;56.80
69932;DHT22;57243;52.064;5.116;2023-06-22T11:48:44;24.40;56.90
69932;DHT22;57243;52.064;5.116;2023-06-22T11:51:09;24.40;56.60
69932;DHT22;57243;52.064;5.116;2023-06-22T11:53:35;24.40;56.50
69932;DHT22;57243;52.064;5.116;2023-06-22T11:56:01;24.40;56.70
69932;DHT22;57243;52.064;5.116;2023-06-22T11:58:26;24.40;56.10
69932;DHT22;57243;52.064;5.116;2023-06-22T12:00:52;24.40;56.10
69932;DHT22;57243;52.064;5.116;2023-06-22T12:03:18;24.50;56.20
69932;DHT22;57243;52.064;5.116;2023-06-22T12:05:43;24.40;56.60
69932;DHT22;57243;52.064;5.116;2023-06-22T12:08:09;24.50;56.50
69932;DHT22;57243;52.064;5.116;2023-06-22T12:10:34;24.50;56.20
69932;DHT22;57243;52.064;5.116;2023-06-22T12:13:00;24.50;56.40
69932;DHT22;57243;52.064;5.116;2023-06-22T12:15:26;24.50;56.50
69932;DHT22;57243;52.064;5.116;2023-06-22T12:17:53;24.50;56.50
69932;DHT22;57243;52.064;5.116;2023-06-22T12:20:19;24.50;56.70
69932;DHT22;57243;52.064;5.116;2023-06-22T12:22:44;24.50;56.90
69932;DHT22;57243;52.064;5.116;2023-06-22T12:25:10;24.50;56.80
69932;DHT22;57243;52.064;5.116;2023-06-22T12:27:36;24.50;56.90
69932;DHT22;57243;52.064;5.116;2023-06-22T12:30:02;24.50;56.60
69932;DHT22;57243;52.064;5.116;2023-06-22T12:32:28;24.50;56.80
69932;DHT22;57243;52.064;5.116;2023-06-22T12:34:53;24.50;56.80
69932;DHT22;57243;52.064;5.116;2023-06-22T12:37:19;24.50;57.00
69932;DHT22;57243;52.064;5.116;2023-06-22T12:39:44;24.50;57.10
69932;DHT22;57243;52.064;5.116;2023-06-22T12:42:10;24.50;57.20
69932;DHT22;57243;52.064;5.116;2023-06-22T12:44:37;24.50;57.20
69932;DHT22;57243;52.064;5.116;2023-06-22T12:47:03;24.50;57.40
69932;DHT22;57243;52.064;5.116;2023-06-22T12:49:28;24.50;57.60
69932;DHT22;57243;52.064;5.116;2023-06-22T12:51:54;24.50;57.60
69932;DHT22;57243;52.064;5.116;2023-06-22T12:54:19;24.50;57.70
69932;DHT22;57243;52.064;5.116;2023-06-22T12:56:45;24.50;58.00
69932;DHT22;57243;52.064;5.116;2023-06-22T12:59:10;24.50;58.40
69932;DHT22;57243;52.064;5.116;2023-06-22T13:01:36;24.50;58.00
69932;DHT22;57243;52.064;5.116;2023-06-22T13:04:02;24.60;58.50
69932;DHT22;57243;52.064;5.116;2023-06-22T13:06:28;24.60;58.50
69932;DHT22;57243;52.064;5.116;2023-06-22T13:08:53;24.60;58.60
69932;DHT22;57243;52.064;5.116;2023-06-22T13:11:19;24.60;58.90
69932;DHT22;57243;52.064;5.116;2023-06-22T13:13:45;24.60;59.00
69932;DHT22;57243;52.064;5.116;2023-06-22T13:16:10;24.60;59.00
69932;DHT22;57243;52.064;5.116;2023-06-22T13:18:36;24.50;59.20
69932;DHT22;57243;52.064;5.116;2023-06-22T13:21:02;24.50;59.50
69932;DHT22;57243;52.064;5.116;2023-06-22T13:23:28;24.60;59.90
69932;DHT22;57243;52.064;5.116;2023-06-22T13:25:54;24.60;60.10
69932;DHT22;57243;52.064;5.116;2023-06-22T13:28:19;24.50;60.00
69932;DHT22;57243;52.064;5.116;2023-06-22T13:30:46;24.50;60.40
69932;DHT22;57243;52.064;5.116;2023-06-22T13:33:12;24.50;60.70
69932;DHT22;57243;52.064;5.116;2023-06-22T13:35:38;24.60;60.80
69932;DHT22;57243;52.064;5.116;2023-06-22T13:38:03;24.60;61.00
69932;DHT22;57243;52.064;5.116;2023-06-22T13:40:29;24.60;61.20
69932;DHT22;57243;52.064;5.116;2023-06-22T13:42:55;24.60;61.50
69932;DHT22;57243;52.064;5.116;2023-06-22T13:45:20;24.60;61.60
69932;DHT22;57243;52.064;5.116;2023-06-22T13:47:46;24.60;61.80
69932;DHT22;57243;52.064;5.116;2023-06-22T13:50:12;24.50;62.00
69932;DHT22;57243;52.064;5.116;2023-06-22T13:52:40;24.50;62.10
69932;DHT22;57243;52.064;5.116;2023-06-22T13:55:06;24.50;62.40
69932;DHT22;57243;52.064;5.116;2023-06-22T13:57:35;24.50;62.30
69932;DHT22;57243;52.064;5.116;2023-06-22T14:00:00;24.50;62.30
69932;DHT22;57243;52.064;5.116;2023-06-22T14:02:26;24.50;62.50
69932;DHT22;57243;52.064;5.116;2023-06-22T14:04:51;24.50;62.50
69932;DHT22;57243;52.064;5.116;2023-06-22T14:07:17;24.40;62.50
69932;DHT22;57243;52.064;5.116;2023-06-22T14:09:44;24.40;62.50
69932;DHT22;57243;52.064;5.116;2023-06-22T14:12:10;24.40;62.70
69932;DHT22;57243;52.064;5.116;2023-06-22T14:14:35;24.40;62.60
69932;DHT22;57243;52.064;5.116;2023-06-22T14:17:01;24.40;62.80
69932;DHT22;57243;52.064;5.116;2023-06-22T14:19:26;24.40;62.80
69932;DHT22;57243;52.064;5.116;2023-06-22T14:21:52;24.40;62.80
69932;DHT22;57243;52.064;5.116;2023-06-22T14:24:17;24.40;62.90
69932;DHT22;57243;52.064;5.116;2023-06-22T14:26:43;24.40;62.80
69932;DHT22;57243;52.064;5.116;2023-06-22T14:29:08;24.40;62.90
69932;DHT22;57243;52.064;5.116;2023-06-22T14:31:34;24.30;62.90
69932;DHT22;57243;52.064;5.116;2023-06-22T14:33:59;24.30;63.00
69932;DHT22;57243;52.064;5.116;2023-06-22T14:36:25;24.30;62.90
69932;DHT22;57243;52.064;5.116;2023-06-22T14:38:51;24.30;63.00
69932;DHT22;57243;52.064;5.116;2023-06-22T14:41:16;24.30;62.90
69932;DHT22;57243;52.064;5.116;2023-06-22T14:43:46;24.30;62.90
69932;DHT22;57243;52.064;5.116;2023-06-22T14:46:12;24.30;62.90
69932;DHT22;57243;52.064;5.116;2023-06-22T14:48:37;24.30;62.90
69932;DHT22;57243;52.064;5.116;2023-06-22T14:51:03;24.20;63.00
69932;DHT22;57243;52.064;5.116;2023-06-22T14:53:28;24.20;63.00
69932;DHT22;57243;52.064;5.116;2023-06-22T14:55:54;24.20;63.00
69932;DHT22;57243;52.064;5.116;2023-06-22T14:58:20;24.20;62.90
69932;DHT22;57243;52.064;5.116;2023-06-22T15:00:45;24.20;63.00
69932;DHT22;57243;52.064;5.116;2023-06-22T15:03:11;24.20;62.70
69932;DHT22;57243;52.064;5.116;2023-06-22T15:05:42;24.00;62.80
69932;DHT22;57243;52.064;5.116;2023-06-22T15:08:07;23.90;63.60
69932;DHT22;57243;52.064;5.116;2023-06-22T15:10:33;23.90;64.40
69932;DHT22;57243;52.064;5.116;2023-06-22T15:12:58;23.90;64.50
69932;DHT22;57243;52.064;5.116;2023-06-22T15:15:24;23.90;64.40
69932;DHT22;57243;52.064;5.116;2023-06-22T15:17:50;23.90;64.50
69932;DHT22;57243;52.064;5.116;2023-06-22T15:20:15;23.80;64.60
69932;DHT22;57243;52.064;5.116;2023-06-22T15:22:41;23.80;64.40
69932;DHT22;57243;52.064;5.116;2023-06-22T15:25:06;23.70;64.30